Time;durP1;ratioP1;P1;durP2;ratioP2;P2;SDS_P1;SDS_P2;PMS_P1;PMS_P2;Temp;Humidity;BMP_temperature;BMP_pressure;BME280_temperature;BME280_humidity;BME280_pressure;Samples;Min_cycle;Max_cycle;Signal;HPM_P1;HPM_P2
2021/04/13 00:02:28;;;;;;;23.70;12.02;;;;;;;13.25;52.23;93950.34;5023729;28;20094;-82
2021/04/13 00:05:00;;;;;;;22.58;12.45;;;;;;;13.18;52.02;93934.09;5023331;28;20117;-81
2021/04/13 00:07:29;;;;;;;22.42;12.68;;;;;;;13.13;52.17;93946.69;5027318;28;20026;-82
2021/04/13 00:09:59;;;;;;;30.63;12.45;;;;;;;13.18;51.95;93951.88;5028718;28;20036;-82
2021/04/13 00:12:29;;;;;;;20.65;12.32;;;;;;;13.17;51.70;93956.41;5027001;28;20052;-83
2021/04/13 00:15:01;;;;;;;23.83;12.73;;;;;;;13.28;52.02;93959.59;5022790;28;20738;-82
2021/04/13 00:17:29;;;;;;;20.67;12.20;;;;;;;13.29;51.44;93955.88;5027953;28;20123;-82
2021/04/13 00:20:41;;;;;;;18.67;12.23;;;;;;;13.22;51.88;93960.81;5009755;28;20631;-80
2021/04/13 00:23:08;;;;;;;20.40;12.45;;;;;;;13.26;51.85;93954.59;5017975;28;20053;-83
2021/04/13 00:25:44;;;;;;;22.75;12.50;;;;;;;13.26;51.73;93957.25;5042688;28;20040;-82
2021/04/13 00:28:10;;;;;;;20.65;13.00;;;;;;;13.34;51.08;93953.84;5032492;28;20032;-83
2021/04/13 00:30:46;;;;;;;20.80;13.00;;;;;;;13.29;51.34;93959.28;5030075;28;20067;-82
2021/04/13 00:33:21;;;;;;;23.52;13.02;;;;;;;13.30;51.55;93963.50;5026251;28;20672;-82
2021/04/13 00:36:00;;;;;;;23.33;12.70;;;;;;;13.32;51.89;93965.88;5030088;28;20033;-82
2021/04/13 00:38:25;;;;;;;18.55;12.70;;;;;;;13.33;51.88;93973.56;5029066;28;20505;-82
2021/04/13 00:40:53;;;;;;;20.75;12.65;;;;;;;13.46;51.07;93977.22;5046710;28;20045;-82
2021/04/13 00:43:22;;;;;;;25.77;12.88;;;;;;;13.41;51.67;93964.06;5027669;28;20059;-82
2021/04/13 00:45:48;;;;;;;21.95;13.07;;;;;;;13.47;51.49;93978.00;5033187;28;20481;-82
2021/04/13 00:48:24;;;;;;;24.30;13.93;;;;;;;13.43;51.82;93975.97;5028881;28;20203;-82
2021/04/13 00:50:51;;;;;;;25.92;13.35;;;;;;;13.53;51.72;93971.50;5032243;28;20045;-82
2021/04/13 00:53:26;;;;;;;24.80;13.20;;;;;;;13.55;51.34;93964.00;5028848;28;20045;-82
2021/04/13 00:55:55;;;;;;;22.90;13.90;;;;;;;13.57;51.42;93967.16;5028990;28;20045;-82
2021/04/13 00:58:29;;;;;;;23.92;12.95;;;;;;;13.45;51.37;93965.03;5028110;28;20068;-85
2021/04/13 01:00:58;;;;;;;23.55;12.55;;;;;;;13.35;51.82;93958.09;5033131;28;20488;-82
2021/04/13 01:03:29;;;;;;;21.67;12.77;;;;;;;13.27;51.61;93968.66;5040426;28;20041;-85
2021/04/13 01:05:59;;;;;;;19.55;12.18;;;;;;;13.09;51.21;93914.63;5026350;28;20041;-84
2021/04/13 01:08:38;;;;;;;19.60;12.43;;;;;;;13.30;52.02;93958.22;5032547;28;20040;-82
2021/04/13 01:11:12;;;;;;;18.55;12.25;;;;;;;13.18;51.72;93954.53;5030412;28;20037;-81
2021/04/13 01:14:00;;;;;;;23.55;11.52;;;;;;;13.24;51.24;93962.06;5027039;28;20067;-81
2021/04/13 01:16:32;;;;;;;18.20;11.68;;;;;;;13.37;50.53;93957.81;5032087;28;20480;-82
2021/04/13 01:19:11;;;;;;;18.50;11.43;;;;;;;13.50;50.66;93962.25;5034602;28;20060;-82
2021/04/13 01:21:51;;;;;;;22.92;11.55;;;;;;;13.45;50.72;93965.81;5040300;28;20040;-83
2021/04/13 01:24:27;;;;;;;18.38;10.88;;;;;;;13.43;51.22;93969.88;5039577;28;20041;-83
2021/04/13 01:26:54;;;;;;;24.98;10.93;;;;;;;13.48;50.78;93966.31;5027938;28;20517;-83
2021/04/13 01:29:23;;;;;;;18.27;11.90;;;;;;;13.43;50.77;93978.63;5033356;28;20475;-82
2021/04/13 01:31:54;;;;;;;23.20;11.48;;;;;;;13.40;51.06;93967.81;5028510;28;20052;-82
2021/04/13 01:34:28;;;;;;;17.63;11.48;;;;;;;13.35;51.37;93971.38;5031681;28;20021;-82
2021/04/13 01:37:42;;;;;;;20.88;12.73;;;;;;;13.52;50.75;93981.34;5029044;28;20064;-82
2021/04/13 01:40:16;;;;;;;23.85;12.55;;;;;;;13.49;50.97;93983.81;5033650;28;20033;-81
2021/04/13 01:42:42;;;;;;;18.27;12.32;;;;;;;13.51;51.23;93989.59;5047078;28;20124;-81
2021/04/13 01:45:12;;;;;;;21.77;12.68;;;;;;;13.45;51.07;93980.97;5029100;28;20028;-82
2021/04/13 01:47:38;;;;;;;24.85;12.20;;;;;;;13.44;50.75;93980.16;5031034;28;20064;-82
2021/04/13 01:50:30;;;;;;;25.20;13.18;;;;;;;13.58;50.98;93987.31;5030169;28;20033;-82
2021/04/13 01:53:05;;;;;;;18.23;12.32;;;;;;;13.58;50.54;93984.66;5032816;28;20481;-82
2021/04/13 01:55:32;;;;;;;25.20;11.90;;;;;;;13.57;50.35;93977.78;5014039;28;20520;-82
2021/04/13 01:58:08;;;;;;;18.75;12.40;;;;;;;13.56;50.39;93982.28;5015986;28;20180;-82
2021/04/13 02:00:43;;;;;;;19.52;11.82;;;;;;;13.47;51.33;93983.31;5032859;28;20628;-82
2021/04/13 02:03:15;;;;;;;25.40;13.35;;;;;;;13.53;51.23;93980.25;5017662;28;20046;-83
2021/04/13 02:05:47;;;;;;;22.25;12.27;;;;;;;13.31;52.25;93970.41;5015887;28;20034;-82
2021/04/13 02:08:26;;;;;;;17.27;12.05;;;;;;;13.34;52.36;93977.75;5023044;28;20044;-82
2021/04/13 02:11:07;;;;;;;24.65;12.30;;;;;;;13.41;53.60;93967.50;5032911;28;20468;-83
2021/04/13 02:13:37;;;;;;;18.15;12.20;;;;;;;13.43;54.30;93983.94;5032311;28;20037;-83
2021/04/13 02:16:05;;;;;;;22.13;13.32;;;;;;;13.38;53.80;93984.06;5035570;28;20044;-82
2021/04/13 02:18:51;;;;;;;18.00;12.38;;;;;;;13.47;56.22;93983.31;5035676;28;20513;-83
2021/04/13 02:21:35;;;;;;;26.50;13.55;;;;;;;13.34;55.87;93955.75;5024306;28;20417;-84
2021/04/13 02:24:11;;;;;;;20.75;12.93;;;;;;;13.47;55.73;93978.00;5033391;28;20093;-82
2021/04/13 02:26:49;;;;;;;22.25;14.07;;;;;;;13.41;58.54;93969.38;5033850;28;20083;-82
2021/04/13 02:29:17;;;;;;;25.50;14.38;;;;;;;13.28;60.60;93975.53;5033163;28;20442;-82
2021/04/13 02:31:48;;;;;;;26.63;12.45;;;;;;;13.06;60.08;93951.56;5033003;28;20044;-82
2021/04/13 02:34:39;;;;;;;24.30;14.60;;;;;;;13.24;60.28;93970.03;5032644;28;20155;-82
2021/04/13 02:37:16;;;;;;;25.25;15.38;;;;;;;13.13;62.37;93958.09;5033833;28;20191;-82
2021/04/13 02:39:42;;;;;;;17.83;12.52;;;;;;;13.02;61.83;93962.00;5032155;28;20503;-82
2021/04/13 02:42:16;;;;;;;19.02;13.10;;;;;;;13.02;62.44;93962.00;5019521;28;20136;-82
2021/04/13 02:44:42;;;;;;;23.42;14.20;;;;;;;13.14;64.08;93964.97;5029091;28;20168;-82
2021/04/13 02:47:12;;;;;;;22.88;13.63;;;;;;;13.09;63.86;93956.31;5026576;28;20037;-82
2021/04/13 02:49:40;;;;;;;20.30;14.10;;;;;;;13.14;62.62;93962.31;5013389;28;20042;-81
2021/04/13 02:52:13;;;;;;;18.10;12.23;;;;;;;13.20;62.81;93962.97;5013091;28;20048;-82
2021/04/13 02:54:43;;;;;;;17.02;9.63;;;;;;;13.30;63.09;93960.06;5012885;28;20484;-82
2021/04/13 02:57:18;;;;;;;18.88;9.20;;;;;;;13.38;63.41;93964.69;5007765;28;20046;-82
2021/04/13 02:59:44;;;;;;;22.77;9.95;;;;;;;13.39;64.37;93955.59;5017987;28;20375;-82
2021/04/13 03:02:17;;;;;;;17.60;10.05;;;;;;;13.43;64.84;93957.38;5018197;28;20040;-83
2021/04/13 03:04:51;;;;;;;18.15;10.00;;;;;;;13.47;65.57;93956.78;5031798;28;20503;-82
2021/04/13 03:07:23;;;;;;;20.50;11.73;;;;;;;13.47;66.55;93967.38;5032789;28;20044;-81
2021/04/13 03:09:53;;;;;;;23.38;10.27;;;;;;;13.49;65.70;93967.88;5033564;28;20507;-82
2021/04/13 03:12:20;;;;;;;19.83;10.63;;;;;;;13.35;65.76;93946.69;5023050;28;20045;-83
2021/04/13 03:14:54;;;;;;;21.35;11.18;;;;;;;13.37;65.58;93952.50;5021561;28;22011;-83
2021/04/13 03:17:25;;;;;;;18.45;10.48;;;;;;;13.41;65.70;93948.94;5024160;28;20049;-82
2021/04/13 03:19:58;;;;;;;22.17;10.50;;;;;;;13.46;65.05;93958.63;5019119;28;20072;-83
2021/04/13 03:22:25;;;;;;;18.60;9.93;;;;;;;13.44;65.76;93963.47;5027977;28;20064;-83
2021/04/13 03:24:51;;;;;;;20.50;9.90;;;;;;;13.47;65.53;93946.16;5035298;28;20025;-82
2021/04/13 03:27:27;;;;;;;18.85;9.60;;;;;;;13.51;66.24;93944.47;5030647;28;20037;-82
2021/04/13 03:30:05;;;;;;;24.15;10.38;;;;;;;13.72;66.00;93954.28;5033340;28;20041;-81
2021/04/13 03:32:37;;;;;;;20.17;9.57;;;;;;;13.70;65.78;93945.03;5032136;28;20033;-82
2021/04/13 03:35:04;;;;;;;18.20;11.07;;;;;;;13.68;66.61;93957.84;5027909;28;20067;-82
2021/04/13 03:37:31;;;;;;;19.60;12.20;;;;;;;13.58;66.94;93936.88;5031825;28;20025;-82
2021/04/13 03:40:03;;;;;;;28.88;11.73;;;;;;;13.57;67.65;93935.28;5033381;28;20091;-83
2021/04/13 03:42:31;;;;;;;24.35;13.93;;;;;;;13.59;67.92;93938.41;5036265;28;20099;-83
2021/04/13 03:44:58;;;;;;;28.90;14.15;;;;;;;13.70;67.73;93945.81;5030620;28;20033;-83
2021/04/13 03:47:29;;;;;;;22.80;14.70;;;;;;;13.71;67.20;93946.63;5031215;28;20526;-83
2021/04/13 03:49:57;;;;;;;25.63;14.20;;;;;;;13.62;67.58;93949.22;5034017;28;20130;-82
2021/04/13 03:52:25;;;;;;;27.92;17.77;;;;;;;13.65;67.95;93947.81;5027237;28;20033;-83
2021/04/13 03:54:51;;;;;;;30.98;15.95;;;;;;;13.60;67.97;93951.38;5031826;28;20394;-83
2021/04/13 03:57:32;;;;;;;22.05;15.77;;;;;;;13.59;67.42;93944.50;5032378;28;20033;-83
2021/04/13 03:59:58;;;;;;;24.30;14.50;;;;;;;13.64;67.38;93947.03;5032014;28;20397;-83
2021/04/13 04:02:24;;;;;;;23.50;13.60;;;;;;;13.58;67.25;93948.28;5032347;28;20047;-83
2021/04/13 04:05:17;;;;;;;29.55;13.52;;;;;;;13.61;67.60;93955.63;5034835;28;20052;-83
2021/04/13 04:10:29;;;;;;;23.77;13.55;;;;;;;13.56;68.05;93965.56;5016826;28;20037;-83
2021/04/13 04:13:01;;;;;;;25.55;13.45;;;;;;;13.33;69.12;93954.97;5036874;28;20049;-83
2021/04/13 04:15:40;;;;;;;24.50;13.50;;;;;;;13.27;70.59;93958.03;5029780;28;20036;-83
2021/04/13 04:18:17;;;;;;;21.60;14.23;;;;;;;13.32;71.82;93971.19;5035149;28;20091;-83
2021/04/13 04:20:43;;;;;;;20.83;13.13;;;;;;;13.38;70.14;93962.81;5030600;28;20529;-84
2021/04/13 04:23:15;;;;;;;15.13;10.93;;;;;;;13.36;68.53;93972.94;5034116;28;20053;-84
2021/04/13 04:25:48;;;;;;;20.02;11.55;;;;;;;13.21;68.41;93953.91;5027579;28;20045;-83
2021/04/13 04:28:13;;;;;;;30.60;15.00;;;;;;;13.32;70.28;93977.28;5034733;28;20107;-84
2021/04/13 04:30:40;;;;;;;23.10;13.93;;;;;;;13.25;71.92;93976.91;5032547;28;20475;-83
2021/04/13 04:33:05;;;;;;;27.52;15.02;;;;;;;13.27;71.81;93977.41;5013126;28;20038;-84
2021/04/13 04:35:39;;;;;;;24.50;15.32;;;;;;;13.26;72.04;93983.78;5010254;28;20037;-84
2021/04/13 04:38:10;;;;;;;22.30;14.10;;;;;;;13.08;72.56;93963.47;5018383;28;20045;-84
2021/04/13 04:40:40;;;;;;;23.45;15.38;;;;;;;13.23;71.39;93976.44;5041395;28;20034;-84
2021/04/13 04:43:13;;;;;;;25.92;15.43;;;;;;;13.42;72.24;93973.59;5048545;28;20029;-83
2021/04/13 04:45:50;;;;;;;20.50;14.65;;;;;;;13.54;71.27;93973.84;4999643;28;20045;-83
2021/04/13 04:48:37;;;;;;;24.45;15.05;;;;;;;13.65;70.97;93969.84;5023281;28;20049;-85
2021/04/13 04:51:08;;;;;;;18.63;12.68;;;;;;;13.73;70.30;93973.66;5042298;28;20520;-84
2021/04/13 04:53:35;;;;;;;22.00;14.15;;;;;;;13.61;69.31;93962.78;5016122;28;20045;-83
2021/04/13 04:56:06;;;;;;;26.25;13.90;;;;;;;13.62;68.92;93957.19;5017859;28;20124;-83
2021/04/13 04:58:32;;;;;;;23.38;15.00;;;;;;;13.74;69.82;93956.63;5045319;28;20021;-85
2021/04/13 05:00:58;;;;;;;30.55;17.85;;;;;;;13.72;69.25;93956.16;5029342;28;20029;-83
2021/04/13 05:03:25;;;;;;;27.08;16.58;;;;;;;13.82;69.70;93955.91;5026494;28;20120;-82
2021/04/13 05:05:51;;;;;;;30.40;18.08;;;;;;;13.53;70.52;93947.59;5031932;28;20037;-83
2021/04/13 05:08:17;;;;;;;30.05;18.88;;;;;;;13.47;71.64;93962.09;5027790;28;20051;-84
2021/04/13 05:10:42;;;;;;;44.92;22.40;;;;;;;13.53;71.73;93950.25;5030982;28;20037;-82
2021/04/13 05:13:09;;;;;;;27.00;18.92;;;;;;;13.30;72.01;93947.59;5033498;28;20037;-84
2021/04/13 05:15:34;;;;;;;27.02;16.70;;;;;;;13.18;72.21;93944.69;5027781;28;20040;-82
2021/04/13 05:18:03;;;;;;;40.78;19.20;;;;;;;13.09;72.63;93933.22;5032434;28;20067;-84
2021/04/13 05:20:29;;;;;;;56.25;18.35;;;;;;;13.08;72.58;93914.94;5034111;28;20110;-84
2021/04/13 05:22:54;;;;;;;28.85;15.23;;;;;;;13.45;70.70;93943.78;5029762;28;20045;-83
2021/04/13 05:25:21;;;;;;;26.20;15.68;;;;;;;13.57;70.32;93951.22;5031137;28;20040;-84
2021/04/13 05:27:46;;;;;;;20.55;14.73;;;;;;;13.66;70.10;93946.75;5035839;28;20028;-86
2021/04/13 05:30:14;;;;;;;30.65;15.73;;;;;;;13.58;70.53;93942.16;5031672;28;20820;-83
2021/04/13 05:32:40;;;;;;;41.42;18.90;;;;;;;13.56;70.63;93939.03;5034683;28;20057;-83
2021/04/13 05:35:07;;;;;;;44.05;19.63;;;;;;;13.48;70.81;93921.97;5030331;28;20553;-84
2021/04/13 05:37:33;;;;;;;52.17;24.20;;;;;;;13.54;70.97;93928.69;5031590;28;20052;-83
2021/04/13 05:40:01;;;;;;;48.58;23.17;;;;;;;13.39;71.15;93921.09;5037753;28;20049;-84
2021/04/13 05:42:32;;;;;;;47.55;24.60;;;;;;;13.39;71.00;93923.75;5029088;28;20095;-85
2021/04/13 05:44:58;;;;;;;56.72;24.35;;;;;;;13.36;72.52;93940.28;5036577;28;20048;-85
2021/04/13 05:47:28;;;;;;;45.15;20.83;;;;;;;13.09;72.04;93929.78;5035010;28;20454;-85
2021/04/13 05:49:54;;;;;;;42.60;21.98;;;;;;;12.82;72.30;93922.66;5031664;28;20065;-85
2021/04/13 05:52:19;;;;;;;36.67;19.10;;;;;;;12.94;72.11;93944.94;5025391;28;20032;-85
2021/04/13 05:54:46;;;;;;;52.65;24.95;;;;;;;12.58;72.06;93921.06;5035942;28;20025;-84
2021/04/13 05:57:14;;;;;;;71.25;32.13;;;;;;;12.42;73.27;93898.59;5034779;28;25883;-83
2021/04/13 05:59:41;;;;;;;65.53;29.55;;;;;;;12.63;72.92;93917.50;5036388;28;20807;-86
2021/04/13 06:02:12;;;;;;;53.65;27.50;;;;;;;12.51;73.00;93883.56;5026006;28;20045;-81
2021/04/13 06:04:38;;;;;;;30.90;18.67;;;;;;;12.79;72.34;93933.88;5046723;28;20045;-83
2021/04/13 06:07:04;;;;;;;38.72;21.38;;;;;;;12.63;72.81;93912.22;5034169;28;20098;-84
2021/04/13 06:09:29;;;;;;;25.23;17.13;;;;;;;12.58;72.12;93921.06;5028934;28;20165;-85
2021/04/13 06:11:59;;;;;;;28.65;16.15;;;;;;;12.57;72.21;93908.88;5034556;28;20115;-84
2021/04/13 06:14:27;;;;;;;25.45;17.83;;;;;;;12.57;73.38;93919.47;5029347;28;20037;-84
2021/04/13 06:17:00;;;;;;;22.30;16.35;;;;;;;12.70;73.85;93914.47;5035609;28;20045;-83
2021/04/13 06:19:26;;;;;;;20.88;14.32;;;;;;;12.86;73.13;93900.56;5029564;28;20029;-83
2021/04/13 06:21:53;;;;;;;28.65;16.00;;;;;;;13.02;73.21;93898.34;5036977;28;20090;-83
2021/04/13 06:24:19;;;;;;;24.45;18.00;;;;;;;12.79;73.63;93888.81;5028639;28;20151;-85
2021/04/13 06:26:44;;;;;;;26.23;15.88;;;;;;;12.66;73.61;93871.06;5032537;28;20059;-84
2021/04/13 06:29:10;;;;;;;23.67;16.02;;;;;;;12.87;73.84;93870.31;5031529;28;20148;-83
2021/04/13 06:31:35;;;;;;;24.35;16.15;;;;;;;12.94;72.96;93860.06;5031794;28;20162;-83
2021/04/13 06:34:01;;;;;;;25.88;16.63;;;;;;;12.91;72.57;93826.16;5033103;28;20025;-83
2021/04/13 06:36:28;;;;;;;22.25;16.20;;;;;;;13.47;72.47;93861.19;5029818;28;20037;-83
2021/04/13 06:38:56;;;;;;;25.73;16.33;;;;;;;13.56;71.19;93870.00;5031801;28;20052;-83
2021/04/13 06:41:46;;;;;;;19.13;16.35;;;;;;;13.30;70.89;93825.50;5031956;28;20040;-84
2021/04/13 06:44:14;;;;;;;24.42;15.10;;;;;;;13.82;69.51;93884.19;5032643;28;20409;-84
2021/04/13 06:47:10;;;;;;;31.08;15.48;;;;;;;13.96;67.68;93900.03;5029416;28;20033;-83
2021/04/13 06:50:12;;;;;;;23.25;15.85;;;;;;;14.09;67.36;93893.81;5032418;28;20049;-84
2021/04/13 06:52:50;;;;;;;24.75;15.15;;;;;;;13.91;66.76;93890.31;5027900;28;20045;-84
2021/04/13 06:55:43;;;;;;;23.65;13.60;;;;;;;13.82;67.43;93878.88;5041746;28;20028;-81
2021/04/13 06:58:27;;;;;;;24.42;14.98;;;;;;;13.98;66.89;93881.88;5030875;28;20025;-83
2021/04/13 07:01:09;;;;;;;26.92;16.25;;;;;;;13.65;68.27;93858.31;5043282;28;20110;-84
2021/04/13 07:04:13;;;;;;;22.48;16.50;;;;;;;13.92;68.13;93862.66;5041311;28;20040;-84
2021/04/13 07:06:46;;;;;;;22.13;15.35;;;;;;;13.73;68.96;93840.88;5031301;28;20572;-84
2021/04/13 07:09:17;;;;;;;27.15;15.65;;;;;;;13.76;69.04;93858.84;5032701;28;20103;-84
2021/04/13 07:12:05;;;;;;;23.77;15.23;;;;;;;13.94;68.52;93854.38;5018869;28;20045;-82
2021/04/13 07:14:30;;;;;;;22.50;16.38;;;;;;;13.97;68.54;93859.09;5011335;28;20041;-83
2021/04/13 07:17:05;;;;;;;25.13;14.70;;;;;;;13.94;68.32;93855.16;5018167;28;20051;-85
2021/04/13 07:19:40;;;;;;;23.45;14.02;;;;;;;14.16;68.00;93843.66;5033930;28;20053;-84
2021/04/13 07:22:08;;;;;;;21.02;13.45;;;;;;;14.52;66.79;93846.09;5028146;28;20028;-83
2021/04/13 07:24:42;;;;;;;19.58;13.55;;;;;;;14.80;65.80;93842.06;5030801;28;20483;-83
2021/04/13 07:27:17;;;;;;;20.23;14.23;;;;;;;15.12;64.50;93841.56;5032910;28;20052;-85
2021/04/13 07:29:44;;;;;;;24.63;13.65;;;;;;;15.18;63.97;93837.66;5032212;28;20049;-83
2021/04/13 07:32:21;;;;;;;22.13;14.60;;;;;;;15.26;62.83;93830.72;5031076;28;20043;-83
2021/04/13 07:34:53;;;;;;;23.15;14.02;;;;;;;15.60;62.48;93841.34;5031516;28;20055;-84
2021/04/13 07:37:33;;;;;;;23.48;13.88;;;;;;;15.85;62.97;93842.34;5033638;28;20025;-84
2021/04/13 07:40:04;;;;;;;29.33;14.30;;;;;;;15.97;60.80;93837.13;5029582;28;20108;-85
2021/04/13 07:42:35;;;;;;;24.08;12.98;;;;;;;16.15;60.48;93840.50;5030923;28;20533;-85
2021/04/13 07:45:22;;;;;;;18.58;13.13;;;;;;;16.56;58.84;93831.00;5042015;28;20125;-84
2021/04/13 07:48:00;;;;;;;23.42;12.25;;;;;;;16.93;57.85;93832.00;5032389;28;20566;-85
2021/04/13 07:50:46;;;;;;;24.23;13.20;;;;;;;17.25;56.12;93823.25;5033961;28;20521;-84
2021/04/13 07:53:18;;;;;;;19.40;10.75;;;;;;;17.73;54.87;93823.38;5030941;28;20576;-81
2021/04/13 07:56:02;;;;;;;18.10;10.60;;;;;;;17.99;53.79;93822.28;5029592;28;20049;-84
2021/04/13 07:58:34;;;;;;;23.17;10.18;;;;;;;18.37;52.07;93820.06;5023259;28;20100;-85
2021/04/13 08:01:00;;;;;;;19.48;10.02;;;;;;;18.69;50.50;93815.69;5041533;28;20591;-84
2021/04/13 08:03:32;;;;;;;16.17;9.07;;;;;;;18.98;49.46;93807.34;5028942;28;20040;-83
2021/04/13 08:06:23;;;;;;;23.15;9.68;;;;;;;19.33;49.24;93817.47;5015492;28;20146;-83
2021/04/13 08:08:50;;;;;;;15.57;8.20;;;;;;;19.60;47.50;93816.66;5008491;28;20096;-85
2021/04/13 08:11:22;;;;;;;17.73;8.15;;;;;;;19.60;46.78;93816.66;5017997;28;20099;-84
2021/04/13 08:13:52;;;;;;;14.40;7.10;;;;;;;19.64;45.97;93817.56;5030850;28;20048;-84
2021/04/13 08:16:30;;;;;;;16.08;8.20;;;;;;;19.81;46.40;93821.78;5028081;28;20110;-84
2021/04/13 08:19:14;;;;;;;18.83;7.90;;;;;;;20.10;46.32;93818.69;5033363;28;20040;-83
2021/04/13 08:21:39;;;;;;;19.92;7.85;;;;;;;20.13;45.76;93827.97;5027798;28;20124;-82
2021/04/13 08:24:15;;;;;;;14.80;7.75;;;;;;;20.16;45.31;93827.25;5025028;28;20041;-82
2021/04/13 08:26:44;;;;;;;14.60;7.63;;;;;;;20.02;45.15;93816.97;5025732;28;20405;-83
2021/04/13 08:29:12;;;;;;;17.08;8.27;;;;;;;19.94;45.35;93825.19;5040065;28;20049;-82
2021/04/13 08:35:16;;;;;;;16.75;8.32;;;;;;;19.91;45.66;93815.91;5029761;28;20059;-82
2021/04/13 08:38:00;;;;;;;16.60;8.63;;;;;;;19.59;46.24;93809.00;5035808;28;20079;-82
2021/04/13 08:40:48;;;;;;;26.70;9.13;;;;;;;19.41;46.03;93811.94;5031387;28;20052;-83
2021/04/13 08:43:28;;;;;;;16.35;8.20;;;;;;;19.61;45.97;93794.09;5031934;28;20047;-82
2021/04/13 08:46:11;;;;;;;14.48;7.22;;;;;;;19.72;46.38;93803.19;5042518;28;20128;-82
2021/04/13 08:48:57;;;;;;;19.73;8.25;;;;;;;19.83;46.19;93803.47;5030920;28;20090;-83
2021/04/13 08:51:40;;;;;;;17.02;8.32;;;;;;;19.66;45.71;93791.16;5031742;28;20048;-83
2021/04/13 08:54:21;;;;;;;17.48;7.45;;;;;;;19.66;45.29;93801.13;5030355;28;20116;-82
2021/04/13 08:57:01;;;;;;;21.25;8.57;;;;;;;19.64;45.79;93796.13;5034472;28;20047;-83
2021/04/13 08:59:39;;;;;;;17.67;8.13;;;;;;;19.49;46.19;93804.91;5031663;28;20056;-84
2021/04/13 09:02:26;;;;;;;13.75;8.25;;;;;;;19.63;45.55;93799.13;5031852;28;20514;-82
2021/04/13 09:05:11;;;;;;;15.02;8.38;;;;;;;19.62;45.54;93802.94;5027631;28;20081;-82
2021/04/13 09:08:00;;;;;;;13.98;7.63;;;;;;;19.60;46.92;93794.44;5028219;28;20052;-83
2021/04/13 09:10:37;;;;;;;22.10;6.88;;;;;;;19.52;45.83;93798.06;5043785;28;20052;-83
2021/04/13 09:13:21;;;;;;;13.60;6.30;;;;;;;19.56;45.46;93794.34;5034850;28;20103;-83
2021/04/13 09:16:20;;;;;;;17.35;6.90;;;;;;;19.39;45.48;93800.03;5031859;28;20401;-83
2021/04/13 09:18:45;;;;;;;15.00;6.03;;;;;;;19.45;45.11;93796.75;4997391;28;20570;-82
2021/04/13 09:21:39;;;;;;;15.27;6.53;;;;;;;19.33;44.97;93791.44;5008561;28;20976;-83
2021/04/13 09:24:37;;;;;;;20.58;6.07;;;;;;;18.92;45.64;93791.84;5008918;28;20108;-85
2021/04/13 09:27:23;;;;;;;8.52;4.60;;;;;;;18.73;45.33;93776.41;5018653;28;20148;-84
2021/04/13 09:29:51;;;;;;;15.88;6.25;;;;;;;18.69;46.27;93778.19;5042864;28;20037;-84
2021/04/13 09:32:23;;;;;;;16.75;6.82;;;;;;;18.78;46.53;93786.09;5031137;28;20099;-84
2021/04/13 09:35:10;;;;;;;15.80;6.55;;;;;;;18.89;46.44;93785.28;5030460;28;20044;-82
2021/04/13 09:37:53;;;;;;;19.08;6.25;;;;;;;19.05;46.28;93774.63;5031861;28;20048;-84
2021/04/13 09:40:25;;;;;;;19.23;6.85;;;;;;;19.06;46.41;93776.16;5031226;28;20030;-84
2021/04/13 09:42:59;;;;;;;17.40;7.45;;;;;;;19.12;47.11;93774.78;5031005;28;20031;-83
2021/04/13 09:45:38;;;;;;;21.30;6.75;;;;;;;19.20;47.03;93776.56;5031317;28;20135;-82
2021/04/13 09:48:27;;;;;;;13.88;6.38;;;;;;;19.18;46.29;93780.69;5028038;28;20049;-84
2021/04/13 09:51:12;;;;;;;15.38;6.03;;;;;;;19.05;47.83;93779.97;5027009;28;20075;-83
2021/04/13 09:53:44;;;;;;;16.67;6.38;;;;;;;19.00;47.04;93778.31;5044202;28;20041;-84
2021/04/13 09:56:15;;;;;;;19.35;7.47;;;;;;;18.97;49.21;93783.56;5026341;28;20592;-83
2021/04/13 09:58:47;;;;;;;24.10;7.88;;;;;;;19.01;48.97;93773.72;5029974;28;20382;-83
2021/04/13 10:01:31;;;;;;;20.33;8.70;;;;;;;18.85;49.86;93764.88;5034825;28;20036;-83
2021/04/13 10:04:27;;;;;;;20.50;8.65;;;;;;;18.80;50.95;93781.19;5021434;28;20049;-84
2021/04/13 10:07:05;;;;;;;16.25;9.45;;;;;;;18.49;51.52;93776.44;5030321;28;20595;-83
2021/04/13 10:09:42;;;;;;;17.30;9.68;;;;;;;18.44;55.60;93768.63;5032710;28;21375;-85
2021/04/13 10:12:45;;;;;;;21.27;9.90;;;;;;;18.27;54.80;93777.72;5013084;28;20041;-85
2021/04/13 10:15:13;;;;;;;33.17;10.75;;;;;;;17.98;57.72;93769.94;5023415;28;20044;-85
2021/04/13 10:18:03;;;;;;;27.00;14.32;;;;;;;18.00;58.37;93778.38;5034832;28;20041;-85
2021/04/13 10:20:58;;;;;;;27.95;15.45;;;;;;;17.81;59.76;93778.16;5034155;28;20052;-84
2021/04/13 10:23:41;;;;;;;21.02;11.30;;;;;;;17.75;59.79;93778.38;5033166;28;20037;-84
2021/04/13 10:26:45;;;;;;;19.90;10.00;;;;;;;17.21;61.80;93775.03;5035979;28;20521;-85
2021/04/13 10:29:29;;;;;;;25.33;14.52;;;;;;;17.18;64.22;93786.38;5032963;28;20947;-85
2021/04/13 10:32:31;;;;;;;18.58;12.20;;;;;;;17.15;60.92;93770.25;5029632;28;20451;-85
2021/04/13 10:35:06;;;;;;;37.50;24.17;;;;;;;16.92;63.65;93782.38;5041645;28;20147;-84
2021/04/13 10:37:56;;;;;;;16.70;8.50;;;;;;;16.81;58.93;93774.03;5034561;28;20488;-84
2021/04/13 10:40:51;;;;;;;17.20;7.68;;;;;;;16.79;57.28;93747.66;5049651;28;20106;-84
2021/04/13 10:43:26;;;;;;;12.83;5.57;;;;;;;16.93;54.14;93763.38;5027719;28;20098;-85
2021/04/13 10:46:07;;;;;;;14.15;4.22;;;;;;;16.71;49.51;93767.16;5032343;28;20017;-82
2021/04/13 10:48:53;;;;;;;10.35;3.28;;;;;;;16.59;49.37;93771.69;5023543;28;20041;-84
2021/04/13 10:51:19;;;;;;;10.35;4.30;;;;;;;16.14;50.38;93763.50;5029818;28;20041;-87
2021/04/13 10:54:03;;;;;;;5.65;3.45;;;;;;;16.03;49.87;93755.88;5030286;28;20083;-85
2021/04/13 10:56:41;;;;;;;7.67;3.70;;;;;;;15.96;50.85;93768.94;5030843;28;20070;-86
2021/04/13 10:59:28;;;;;;;7.47;2.58;;;;;;;15.74;50.73;93752.41;5030316;28;21520;-81
2021/04/13 11:02:31;;;;;;;9.93;3.50;;;;;;;15.92;49.48;93757.34;5030860;28;20412;-85
2021/04/13 11:04:58;;;;;;;7.45;2.75;;;;;;;15.68;48.07;93741.19;5029392;28;20049;-87
2021/04/13 11:07:45;;;;;;;10.65;3.45;;;;;;;15.73;47.35;93732.22;5027829;28;20052;-86
2021/04/13 11:10:39;;;;;;;9.10;3.55;;;;;;;15.67;48.36;93728.97;5034990;28;20013;-84
2021/04/13 11:13:43;;;;;;;11.57;4.97;;;;;;;15.84;47.40;93728.06;4996402;28;20069;-85
2021/04/13 11:16:24;;;;;;;13.95;5.90;;;;;;;15.80;53.21;93727.94;5008801;28;20383;-86
2021/04/13 11:19:04;;;;;;;21.92;8.35;;;;;;;15.30;60.30;93698.53;5009385;28;20049;-86
2021/04/13 11:22:04;;;;;;;32.88;12.77;;;;;;;15.38;67.38;93723.59;5014675;28;20605;-85
2021/04/13 11:24:45;;;;;;;25.05;15.13;;;;;;;15.41;69.13;93731.72;5030238;28;20041;-86
2021/04/13 11:27:29;;;;;;;25.90;16.23;;;;;;;15.49;70.59;93722.88;5042556;28;20044;-85
2021/04/13 11:30:28;;;;;;;23.05;14.38;;;;;;;15.21;72.59;93721.75;5029832;28;20865;-86
2021/04/13 11:33:22;;;;;;;26.13;15.10;;;;;;;14.94;74.64;93733.59;5015391;28;20091;-83
2021/04/13 11:36:26;;;;;;;24.10;14.90;;;;;;;14.67;74.42;93717.97;5006883;28;20049;-85
2021/04/13 11:39:01;;;;;;;34.65;15.98;;;;;;;14.61;75.97;93735.22;5038284;28;20106;-84
2021/04/13 11:41:45;;;;;;;;;;;;;;;14.59;75.32;93743.50;5034605;28;20036;-84
2021/04/13 11:44:38;;;;;;;28.30;13.77;;;;;;;14.58;74.48;93741.13;5030133;28;19925;-84
2021/04/13 11:47:32;;;;;;;21.85;11.88;;;;;;;14.61;72.53;93740.53;5026159;28;20041;-84
2021/04/13 11:50:16;;;;;;;31.95;13.43;;;;;;;14.26;73.95;93734.41;5013408;28;20049;-83
2021/04/13 11:52:53;;;;;;;32.85;15.35;;;;;;;14.33;75.38;93719.53;5036184;28;20037;-83
2021/04/13 11:55:36;;;;;;;26.67;16.48;;;;;;;14.36;76.32;93728.00;5030074;28;20024;-84
2021/04/13 11:58:10;;;;;;;26.88;15.38;;;;;;;14.20;75.98;93714.38;5015491;28;20287;-85
2021/04/13 12:00:36;;;;;;;26.50;16.92;;;;;;;14.29;77.80;93700.00;5004951;28;20046;-83
2021/04/13 12:03:49;;;;;;;17.55;11.68;;;;;;;14.32;73.93;93695.91;5023850;28;20044;-84
2021/04/13 12:06:47;;;;;;;19.83;12.13;;;;;;;14.45;73.59;93683.59;5031178;28;20623;-83